sensor_id;sensor_type;location;lat;lon;timestamp;P1;durP1;ratioP1;P2;durP2;ratioP2
50631;SDS011;49583;45.590;-122.498;2024-01-15T00:00:31;4.70;;;4.30;;
50631;SDS011;49583;45.590;-122.498;2024-01-15T00:03:04;6.80;;;6.20;;
50631;SDS011;49583;45.590;-122.498;2024-01-15T00:05:18;5.10;;;4.60;;
50631;SDS011;49583;45.590;-122.498;2024-01-15T00:07:31;5.40;;;5.00;;
50631;SDS011;49583;45.590;-122.498;2024-01-15T00:09:43;4.70;;;4.40;;
50631;SDS011;49583;45.590;-122.498;2024-01-15T00:11:56;5.60;;;5.10;;
50631;SDS011;49583;45.590;-122.498;2024-01-15T00:14:09;5.20;;;4.70;;
50631;SDS011;49583;45.590;-122.498;2024-01-15T00:16:27;5.50;;;5.20;;
50631;SDS011;49583;45.590;-122.498;2024-01-15T00:18:56;5.80;;;5.30;;
50631;SDS011;49583;45.590;-122.498;2024-01-15T00:21:09;5.70;;;4.80;;
50631;SDS011;49583;45.590;-122.498;2024-01-15T00:23:22;5.00;;;4.70;;
50631;SDS011;49583;45.590;-122.498;2024-01-15T00:25:35;6.60;;;4.60;;
50631;SDS011;49583;45.590;-122.498;2024-01-15T00:27:47;5.60;;;5.10;;
50631;SDS011;49583;45.590;-122.498;2024-01-15T00:30:00;5.30;;;4.50;;
50631;SDS011;49583;45.590;-122.498;2024-01-15T00:32:14;6.10;;;5.60;;
50631;SDS011;49583;45.590;-122.498;2024-01-15T00:34:27;5.50;;;5.00;;
50631;SDS011;49583;45.590;-122.498;2024-01-15T00:36:40;5.20;;;4.90;;
50631;SDS011;49583;45.590;-122.498;2024-01-15T00:38:53;6.20;;;5.50;;
50631;SDS011;49583;45.590;-122.498;2024-01-15T00:41:08;5.30;;;5.00;;
50631;SDS011;49583;45.590;-122.498;2024-01-15T00:43:21;6.30;;;5.80;;
50631;SDS011;49583;45.590;-122.498;2024-01-15T00:45:34;5.40;;;5.00;;
50631;SDS011;49583;45.590;-122.498;2024-01-15T00:47:46;5.80;;;5.40;;
50631;SDS011;49583;45.590;-122.498;2024-01-15T00:50:01;5.90;;;5.40;;
50631;SDS011;49583;45.590;-122.498;2024-01-15T00:52:15;6.30;;;5.90;;
50631;SDS011;49583;45.590;-122.498;2024-01-15T00:54:28;6.50;;;6.00;;
50631;SDS011;49583;45.590;-122.498;2024-01-15T00:56:41;6.00;;;5.50;;
50631;SDS011;49583;45.590;-122.498;2024-01-15T00:58:56;5.80;;;5.40;;
50631;SDS011;49583;45.590;-122.498;2024-01-15T01:01:10;5.30;;;4.90;;
50631;SDS011;49583;45.590;-122.498;2024-01-15T01:03:25;5.80;;;5.30;;
50631;SDS011;49583;45.590;-122.498;2024-01-15T01:05:38;5.40;;;5.00;;
50631;SDS011;49583;45.590;-122.498;2024-01-15T01:07:57;6.10;;;5.60;;
50631;SDS011;49583;45.590;-122.498;2024-01-15T01:10:10;5.30;;;4.90;;
50631;SDS011;49583;45.590;-122.498;2024-01-15T01:12:24;6.30;;;5.50;;
50631;SDS011;49583;45.590;-122.498;2024-01-15T01:14:38;5.60;;;5.20;;
50631;SDS011;49583;45.590;-122.498;2024-01-15T01:16:52;6.60;;;6.00;;
50631;SDS011;49583;45.590;-122.498;2024-01-15T01:19:05;6.80;;;6.10;;
50631;SDS011;49583;45.590;-122.498;2024-01-15T01:21:17;6.60;;;6.10;;
50631;SDS011;49583;45.590;-122.498;2024-01-15T01:23:38;5.90;;;5.50;;
50631;SDS011;49583;45.590;-122.498;2024-01-15T01:25:54;6.20;;;5.80;;
50631;SDS011;49583;45.590;-122.498;2024-01-15T01:28:08;6.70;;;5.70;;
50631;SDS011;49583;45.590;-122.498;2024-01-15T01:30:41;5.70;;;5.30;;
50631;SDS011;49583;45.590;-122.498;2024-01-15T01:32:54;6.20;;;5.60;;
50631;SDS011;49583;45.590;-122.498;2024-01-15T01:35:08;6.20;;;5.70;;
50631;SDS011;49583;45.590;-122.498;2024-01-15T01:37:24;5.10;;;4.70;;
50631;SDS011;49583;45.590;-122.498;2024-01-15T01:39:39;4.60;;;4.20;;
50631;SDS011;49583;45.590;-122.498;2024-01-15T01:41:56;6.20;;;5.50;;
50631;SDS011;49583;45.590;-122.498;2024-01-15T01:44:09;5.70;;;5.30;;
50631;SDS011;49583;45.590;-122.498;2024-01-15T01:46:23;5.80;;;5.40;;
50631;SDS011;49583;45.590;-122.498;2024-01-15T01:48:39;6.30;;;5.90;;
50631;SDS011;49583;45.590;-122.498;2024-01-15T01:50:56;7.60;;;6.90;;
50631;SDS011;49583;45.590;-122.498;2024-01-15T01:53:16;7.10;;;5.70;;
50631;SDS011;49583;45.590;-122.498;2024-01-15T01:55:32;6.00;;;5.30;;
50631;SDS011;49583;45.590;-122.498;2024-01-15T01:57:47;5.60;;;5.20;;
50631;SDS011;49583;45.590;-122.498;2024-01-15T02:00:07;6.30;;;5.80;;
50631;SDS011;49583;45.590;-122.498;2024-01-15T02:02:23;6.00;;;5.60;;
50631;SDS011;49583;45.590;-122.498;2024-01-15T02:04:39;5.30;;;4.80;;
50631;SDS011;49583;45.590;-122.498;2024-01-15T02:06:53;6.50;;;5.90;;
50631;SDS011;49583;45.590;-122.498;2024-01-15T02:09:07;5.90;;;5.50;;
50631;SDS011;49583;45.590;-122.498;2024-01-15T02:11:24;5.50;;;5.10;;
50631;SDS011;49583;45.590;-122.498;2024-01-15T02:13:40;7.20;;;6.40;;
50631;SDS011;49583;45.590;-122.498;2024-01-15T02:15:55;6.30;;;5.70;;
50631;SDS011;49583;45.590;-122.498;2024-01-15T02:18:14;6.20;;;5.30;;
50631;SDS011;49583;45.590;-122.498;2024-01-15T02:20:29;6.50;;;5.90;;
50631;SDS011;49583;45.590;-122.498;2024-01-15T02:22:42;6.10;;;5.50;;
50631;SDS011;49583;45.590;-122.498;2024-01-15T02:24:57;5.90;;;4.90;;
50631;SDS011;49583;45.590;-122.498;2024-01-15T02:27:16;6.20;;;5.70;;
50631;SDS011;49583;45.590;-122.498;2024-01-15T02:29:33;5.60;;;4.80;;
50631;SDS011;49583;45.590;-122.498;2024-01-15T02:31:50;5.20;;;4.60;;
50631;SDS011;49583;45.590;-122.498;2024-01-15T02:34:04;5.20;;;4.90;;
50631;SDS011;49583;45.590;-122.498;2024-01-15T02:36:20;5.90;;;5.50;;
50631;SDS011;49583;45.590;-122.498;2024-01-15T02:38:34;5.90;;;5.30;;
50631;SDS011;49583;45.590;-122.498;2024-01-15T02:40:49;6.60;;;6.10;;
50631;SDS011;49583;45.590;-122.498;2024-01-15T02:43:04;7.40;;;6.80;;
50631;SDS011;49583;45.590;-122.498;2024-01-15T02:45:19;7.00;;;6.30;;
50631;SDS011;49583;45.590;-122.498;2024-01-15T02:47:33;6.20;;;5.70;;
50631;SDS011;49583;45.590;-122.498;2024-01-15T02:49:47;5.50;;;5.00;;
50631;SDS011;49583;45.590;-122.498;2024-01-15T02:52:00;6.00;;;5.30;;
50631;SDS011;49583;45.590;-122.498;2024-01-15T02:54:15;5.40;;;4.90;;
50631;SDS011;49583;45.590;-122.498;2024-01-15T02:56:31;5.40;;;5.00;;
50631;SDS011;49583;45.590;-122.498;2024-01-15T02:58:45;5.40;;;4.90;;
50631;SDS011;49583;45.590;-122.498;2024-01-15T03:00:58;5.70;;;5.30;;
50631;SDS011;49583;45.590;-122.498;2024-01-15T03:03:15;5.60;;;5.20;;
50631;SDS011;49583;45.590;-122.498;2024-01-15T03:05:30;8.30;;;5.70;;
50631;SDS011;49583;45.590;-122.498;2024-01-15T03:07:43;5.70;;;5.30;;
50631;SDS011;49583;45.590;-122.498;2024-01-15T03:09:56;7.00;;;6.30;;
50631;SDS011;49583;45.590;-122.498;2024-01-15T03:12:10;6.30;;;5.70;;
50631;SDS011;49583;45.590;-122.498;2024-01-15T03:14:24;5.40;;;5.00;;
50631;SDS011;49583;45.590;-122.498;2024-01-15T03:16:37;5.10;;;4.70;;
50631;SDS011;49583;45.590;-122.498;2024-01-15T03:18:50;6.10;;;5.50;;
50631;SDS011;49583;45.590;-122.498;2024-01-15T03:21:05;4.60;;;4.30;;
50631;SDS011;49583;45.590;-122.498;2024-01-15T03:23:19;5.10;;;4.70;;
50631;SDS011;49583;45.590;-122.498;2024-01-15T03:25:32;6.70;;;6.10;;
50631;SDS011;49583;45.590;-122.498;2024-01-15T03:27:45;5.60;;;5.30;;
50631;SDS011;49583;45.590;-122.498;2024-01-15T03:30:00;6.00;;;5.20;;
50631;SDS011;49583;45.590;-122.498;2024-01-15T03:32:13;5.50;;;5.10;;
50631;SDS011;49583;45.590;-122.498;2024-01-15T03:34:27;6.00;;;5.50;;
50631;SDS011;49583;45.590;-122.498;2024-01-15T03:36:42;4.70;;;4.30;;
50631;SDS011;49583;45.590;-122.498;2024-01-15T03:38:55;6.20;;;5.60;;
50631;SDS011;49583;45.590;-122.498;2024-01-15T03:41:09;5.20;;;4.70;;
50631;SDS011;49583;45.590;-122.498;2024-01-15T03:43:22;5.90;;;5.10;;
50631;SDS011;49583;45.590;-122.498;2024-01-15T03:45:36;6.60;;;6.00;;
50631;SDS011;49583;45.590;-122.498;2024-01-15T03:47:50;4.20;;;3.90;;
50631;SDS011;49583;45.590;-122.498;2024-01-15T03:50:03;6.20;;;5.70;;
50631;SDS011;49583;45.590;-122.498;2024-01-15T03:52:17;5.50;;;5.10;;
50631;SDS011;49583;45.590;-122.498;2024-01-15T03:54:29;5.30;;;4.80;;
50631;SDS011;49583;45.590;-122.498;2024-01-15T03:56:44;6.40;;;4.70;;
50631;SDS011;49583;45.590;-122.498;2024-01-15T03:58:57;5.20;;;4.80;;
50631;SDS011;49583;45.590;-122.498;2024-01-15T04:01:11;8.60;;;5.70;;
50631;SDS011;49583;45.590;-122.498;2024-01-15T04:03:25;5.40;;;4.60;;
50631;SDS011;49583;45.590;-122.498;2024-01-15T04:05:38;5.20;;;4.70;;
50631;SDS011;49583;45.590;-122.498;2024-01-15T04:07:52;5.60;;;5.20;;
50631;SDS011;49583;45.590;-122.498;2024-01-15T04:10:05;6.50;;;5.90;;
50631;SDS011;49583;45.590;-122.498;2024-01-15T04:12:18;5.70;;;5.30;;
50631;SDS011;49583;45.590;-122.498;2024-01-15T04:14:33;6.50;;;5.70;;
50631;SDS011;49583;45.590;-122.498;2024-01-15T04:16:49;5.30;;;4.90;;
50631;SDS011;49583;45.590;-122.498;2024-01-15T04:19:02;5.40;;;5.00;;
50631;SDS011;49583;45.590;-122.498;2024-01-15T04:21:16;5.40;;;5.00;;
50631;SDS011;49583;45.590;-122.498;2024-01-15T04:23:29;5.40;;;5.10;;
50631;SDS011;49583;45.590;-122.498;2024-01-15T04:25:43;5.50;;;5.10;;
50631;SDS011;49583;45.590;-122.498;2024-01-15T04:27:57;5.70;;;5.30;;
50631;SDS011;49583;45.590;-122.498;2024-01-15T04:30:11;5.00;;;4.60;;
50631;SDS011;49583;45.590;-122.498;2024-01-15T04:32:25;5.70;;;5.20;;
50631;SDS011;49583;45.590;-122.498;2024-01-15T04:34:38;5.90;;;5.50;;
50631;SDS011;49583;45.590;-122.498;2024-01-15T04:36:51;5.70;;;5.30;;
50631;SDS011;49583;45.590;-122.498;2024-01-15T04:39:04;5.80;;;5.30;;
50631;SDS011;49583;45.590;-122.498;2024-01-15T04:41:21;4.20;;;4.00;;
50631;SDS011;49583;45.590;-122.498;2024-01-15T04:43:35;5.60;;;5.20;;
50631;SDS011;49583;45.590;-122.498;2024-01-15T04:45:48;6.00;;;5.60;;
50631;SDS011;49583;45.590;-122.498;2024-01-15T04:48:01;5.90;;;5.40;;
50631;SDS011;49583;45.590;-122.498;2024-01-15T04:50:15;5.70;;;5.30;;
50631;SDS011;49583;45.590;-122.498;2024-01-15T04:52:28;6.40;;;5.90;;
50631;SDS011;49583;45.590;-122.498;2024-01-15T04:54:41;5.40;;;5.00;;
50631;SDS011;49583;45.590;-122.498;2024-01-15T04:56:54;5.80;;;5.40;;
50631;SDS011;49583;45.590;-122.498;2024-01-15T04:59:07;6.10;;;5.60;;
50631;SDS011;49583;45.590;-122.498;2024-01-15T05:01:21;5.60;;;5.30;;
50631;SDS011;49583;45.590;-122.498;2024-01-15T05:03:34;6.10;;;5.70;;
50631;SDS011;49583;45.590;-122.498;2024-01-15T05:05:47;5.30;;;4.90;;
50631;SDS011;49583;45.590;-122.498;2024-01-15T05:08:01;6.00;;;5.50;;
50631;SDS011;49583;45.590;-122.498;2024-01-15T05:10:14;6.60;;;5.80;;
50631;SDS011;49583;45.590;-122.498;2024-01-15T05:12:28;5.50;;;5.10;;
50631;SDS011;49583;45.590;-122.498;2024-01-15T05:14:41;6.40;;;5.90;;
50631;SDS011;49583;45.590;-122.498;2024-01-15T05:16:54;8.10;;;5.80;;
50631;SDS011;49583;45.590;-122.498;2024-01-15T05:19:08;5.90;;;5.40;;
50631;SDS011;49583;45.590;-122.498;2024-01-15T05:21:21;5.30;;;4.80;;
50631;SDS011;49583;45.590;-122.498;2024-01-15T05:23:34;6.50;;;5.80;;
50631;SDS011;49583;45.590;-122.498;2024-01-15T05:25:46;5.70;;;5.20;;
50631;SDS011;49583;45.590;-122.498;2024-01-15T05:28:00;5.80;;;5.20;;
50631;SDS011;49583;45.590;-122.498;2024-01-15T05:30:13;5.90;;;5.40;;
50631;SDS011;49583;45.590;-122.498;2024-01-15T05:32:26;6.70;;;6.20;;
50631;SDS011;49583;45.590;-122.498;2024-01-15T05:34:39;5.70;;;5.20;;
50631;SDS011;49583;45.590;-122.498;2024-01-15T05:36:52;5.80;;;5.40;;
50631;SDS011;49583;45.590;-122.498;2024-01-15T05:39:05;4.90;;;4.50;;
50631;SDS011;49583;45.590;-122.498;2024-01-15T05:41:19;5.80;;;5.40;;
50631;SDS011;49583;45.590;-122.498;2024-01-15T05:43:32;4.90;;;4.50;;
50631;SDS011;49583;45.590;-122.498;2024-01-15T05:45:44;5.80;;;5.30;;
50631;SDS011;49583;45.590;-122.498;2024-01-15T05:47:58;6.00;;;5.10;;
50631;SDS011;49583;45.590;-122.498;2024-01-15T05:50:11;6.30;;;5.80;;
50631;SDS011;49583;45.590;-122.498;2024-01-15T05:52:23;5.90;;;5.50;;
50631;SDS011;49583;45.590;-122.498;2024-01-15T05:54:36;5.00;;;4.60;;
50631;SDS011;49583;45.590;-122.498;2024-01-15T05:56:49;5.20;;;4.70;;
50631;SDS011;49583;45.590;-122.498;2024-01-15T05:59:01;6.00;;;5.60;;
50631;SDS011;49583;45.590;-122.498;2024-01-15T06:01:16;6.60;;;5.60;;
50631;SDS011;49583;45.590;-122.498;2024-01-15T06:03:29;5.40;;;4.90;;
50631;SDS011;49583;45.590;-122.498;2024-01-15T06:05:44;5.70;;;4.90;;
50631;SDS011;49583;45.590;-122.498;2024-01-15T06:07:57;3.80;;;3.50;;
50631;SDS011;49583;45.590;-122.498;2024-01-15T06:10:10;4.20;;;3.90;;
50631;SDS011;49583;45.590;-122.498;2024-01-15T06:12:23;4.50;;;4.10;;
50631;SDS011;49583;45.590;-122.498;2024-01-15T06:14:37;3.70;;;3.40;;
50631;SDS011;49583;45.590;-122.498;2024-01-15T06:16:50;5.10;;;4.70;;
50631;SDS011;49583;45.590;-122.498;2024-01-15T06:19:03;3.80;;;3.50;;
50631;SDS011;49583;45.590;-122.498;2024-01-15T06:21:16;5.20;;;4.30;;
50631;SDS011;49583;45.590;-122.498;2024-01-15T06:23:29;5.40;;;5.00;;
50631;SDS011;49583;45.590;-122.498;2024-01-15T06:25:45;4.40;;;4.10;;
50631;SDS011;49583;45.590;-122.498;2024-01-15T06:27:58;5.50;;;5.20;;
50631;SDS011;49583;45.590;-122.498;2024-01-15T06:30:15;6.30;;;5.70;;
50631;SDS011;49583;45.590;-122.498;2024-01-15T06:32:28;7.30;;;5.50;;
50631;SDS011;49583;45.590;-122.498;2024-01-15T06:34:42;6.40;;;4.90;;
50631;SDS011;49583;45.590;-122.498;2024-01-15T06:36:55;4.70;;;4.30;;
50631;SDS011;49583;45.590;-122.498;2024-01-15T06:39:07;4.90;;;4.60;;
50631;SDS011;49583;45.590;-122.498;2024-01-15T06:41:20;5.80;;;5.30;;
50631;SDS011;49583;45.590;-122.498;2024-01-15T06:43:33;5.00;;;4.60;;
50631;SDS011;49583;45.590;-122.498;2024-01-15T06:45:46;4.20;;;3.90;;
50631;SDS011;49583;45.590;-122.498;2024-01-15T06:47:59;5.30;;;4.90;;
50631;SDS011;49583;45.590;-122.498;2024-01-15T06:50:13;5.10;;;4.80;;
50631;SDS011;49583;45.590;-122.498;2024-01-15T06:52:26;4.90;;;4.40;;
50631;SDS011;49583;45.590;-122.498;2024-01-15T06:54:39;4.90;;;4.60;;
50631;SDS011;49583;45.590;-122.498;2024-01-15T06:56:51;5.70;;;5.20;;
50631;SDS011;49583;45.590;-122.498;2024-01-15T06:59:04;5.10;;;4.70;;
50631;SDS011;49583;45.590;-122.498;2024-01-15T07:01:16;5.70;;;5.20;;
50631;SDS011;49583;45.590;-122.498;2024-01-15T07:03:29;4.10;;;3.80;;
50631;SDS011;49583;45.590;-122.498;2024-01-15T07:05:42;5.30;;;4.90;;
50631;SDS011;49583;45.590;-122.498;2024-01-15T07:07:55;4.90;;;4.50;;
50631;SDS011;49583;45.590;-122.498;2024-01-15T07:10:08;6.40;;;5.00;;
50631;SDS011;49583;45.590;-122.498;2024-01-15T07:12:21;3.90;;;3.50;;
50631;SDS011;49583;45.590;-122.498;2024-01-15T07:14:34;4.80;;;3.90;;
50631;SDS011;49583;45.590;-122.498;2024-01-15T07:16:47;3.90;;;3.30;;
50631;SDS011;49583;45.590;-122.498;2024-01-15T07:18:59;4.10;;;3.60;;
50631;SDS011;49583;45.590;-122.498;2024-01-15T07:21:12;4.20;;;3.90;;
50631;SDS011;49583;45.590;-122.498;2024-01-15T07:23:26;3.90;;;3.50;;
50631;SDS011;49583;45.590;-122.498;2024-01-15T07:25:40;3.40;;;3.10;;
50631;SDS011;49583;45.590;-122.498;2024-01-15T07:27:53;2.90;;;2.70;;
50631;SDS011;49583;45.590;-122.498;2024-01-15T07:30:08;4.90;;;4.50;;
50631;SDS011;49583;45.590;-122.498;2024-01-15T07:32:22;4.60;;;4.20;;
50631;SDS011;49583;45.590;-122.498;2024-01-15T07:34:35;4.70;;;3.30;;
50631;SDS011;49583;45.590;-122.498;2024-01-15T07:36:48;4.30;;;4.00;;
50631;SDS011;49583;45.590;-122.498;2024-01-15T07:39:01;4.50;;;4.20;;
50631;SDS011;49583;45.590;-122.498;2024-01-15T07:41:14;4.60;;;4.20;;
50631;SDS011;49583;45.590;-122.498;2024-01-15T07:43:26;3.80;;;3.30;;
50631;SDS011;49583;45.590;-122.498;2024-01-15T07:45:39;4.80;;;4.40;;
50631;SDS011;49583;45.590;-122.498;2024-01-15T07:47:52;4.90;;;4.50;;
50631;SDS011;49583;45.590;-122.498;2024-01-15T07:50:06;5.10;;;4.60;;
50631;SDS011;49583;45.590;-122.498;2024-01-15T07:52:19;6.00;;;4.50;;
50631;SDS011;49583;45.590;-122.498;2024-01-15T07:54:32;4.40;;;4.10;;
50631;SDS011;49583;45.590;-122.498;2024-01-15T07:56:57;4.40;;;4.20;;
50631;SDS011;49583;45.590;-122.498;2024-01-15T07:59:11;4.90;;;4.50;;
50631;SDS011;49583;45.590;-122.498;2024-01-15T08:01:25;5.40;;;4.40;;
50631;SDS011;49583;45.590;-122.498;2024-01-15T08:03:38;4.30;;;4.00;;
50631;SDS011;49583;45.590;-122.498;2024-01-15T08:05:51;5.00;;;4.60;;
50631;SDS011;49583;45.590;-122.498;2024-01-15T08:08:05;3.70;;;3.50;;
50631;SDS011;49583;45.590;-122.498;2024-01-15T08:10:18;4.20;;;3.90;;
50631;SDS011;49583;45.590;-122.498;2024-01-15T08:12:30;5.10;;;4.60;;
50631;SDS011;49583;45.590;-122.498;2024-01-15T08:14:43;5.50;;;4.00;;
50631;SDS011;49583;45.590;-122.498;2024-01-15T08:16:55;5.30;;;3.90;;
50631;SDS011;49583;45.590;-122.498;2024-01-15T08:19:09;7.20;;;4.50;;
50631;SDS011;49583;45.590;-122.498;2024-01-15T08:21:22;4.50;;;4.20;;
50631;SDS011;49583;45.590;-122.498;2024-01-15T08:23:36;4.80;;;4.20;;
50631;SDS011;49583;45.590;-122.498;2024-01-15T08:25:50;4.20;;;3.90;;
50631;SDS011;49583;45.590;-122.498;2024-01-15T08:28:02;3.90;;;3.70;;
50631;SDS011;49583;45.590;-122.498;2024-01-15T08:30:16;4.40;;;4.10;;
50631;SDS011;49583;45.590;-122.498;2024-01-15T08:32:32;4.20;;;3.80;;
50631;SDS011;49583;45.590;-122.498;2024-01-15T08:34:49;4.10;;;3.70;;
50631;SDS011;49583;45.590;-122.498;2024-01-15T08:37:01;3.90;;;3.60;;
50631;SDS011;49583;45.590;-122.498;2024-01-15T08:39:14;3.80;;;3.60;;
50631;SDS011;49583;45.590;-122.498;2024-01-15T08:41:27;3.90;;;3.70;;
50631;SDS011;49583;45.590;-122.498;2024-01-15T08:43:40;4.60;;;4.10;;
50631;SDS011;49583;45.590;-122.498;2024-01-15T08:45:52;3.90;;;3.70;;
50631;SDS011;49583;45.590;-122.498;2024-01-15T08:48:05;3.90;;;3.60;;
50631;SDS011;49583;45.590;-122.498;2024-01-15T08:50:18;5.20;;;3.90;;
50631;SDS011;49583;45.590;-122.498;2024-01-15T08:52:30;4.10;;;3.80;;
50631;SDS011;49583;45.590;-122.498;2024-01-15T08:54:43;3.50;;;3.20;;
50631;SDS011;49583;45.590;-122.498;2024-01-15T08:56:56;3.90;;;3.60;;
50631;SDS011;49583;45.590;-122.498;2024-01-15T08:59:09;4.30;;;3.70;;
50631;SDS011;49583;45.590;-122.498;2024-01-15T09:01:21;4.20;;;3.90;;
50631;SDS011;49583;45.590;-122.498;2024-01-15T09:03:34;3.50;;;3.30;;
50631;SDS011;49583;45.590;-122.498;2024-01-15T09:05:47;4.00;;;3.70;;
50631;SDS011;49583;45.590;-122.498;2024-01-15T09:08:00;3.50;;;3.30;;
50631;SDS011;49583;45.590;-122.498;2024-01-15T09:10:12;3.80;;;3.50;;
50631;SDS011;49583;45.590;-122.498;2024-01-15T09:12:25;3.80;;;3.60;;
50631;SDS011;49583;45.590;-122.498;2024-01-15T09:14:37;3.90;;;3.70;;
50631;SDS011;49583;45.590;-122.498;2024-01-15T09:16:51;4.30;;;3.90;;
50631;SDS011;49583;45.590;-122.498;2024-01-15T09:19:03;4.10;;;3.80;;
50631;SDS011;49583;45.590;-122.498;2024-01-15T09:21:16;4.00;;;3.70;;
50631;SDS011;49583;45.590;-122.498;2024-01-15T09:23:29;4.20;;;3.90;;
50631;SDS011;49583;45.590;-122.498;2024-01-15T09:25:43;4.20;;;3.80;;
50631;SDS011;49583;45.590;-122.498;2024-01-15T09:27:56;3.90;;;3.70;;
50631;SDS011;49583;45.590;-122.498;2024-01-15T09:30:10;3.20;;;3.00;;
50631;SDS011;49583;45.590;-122.498;2024-01-15T09:32:23;3.70;;;3.50;;
50631;SDS011;49583;45.590;-122.498;2024-01-15T09:34:36;4.00;;;3.70;;
50631;SDS011;49583;45.590;-122.498;2024-01-15T09:36:49;4.30;;;4.00;;
50631;SDS011;49583;45.590;-122.498;2024-01-15T09:39:01;3.90;;;3.60;;
50631;SDS011;49583;45.590;-122.498;2024-01-15T09:41:15;3.70;;;3.50;;
50631;SDS011;49583;45.590;-122.498;2024-01-15T09:43:28;3.70;;;3.50;;
50631;SDS011;49583;45.590;-122.498;2024-01-15T09:45:41;3.20;;;2.80;;
50631;SDS011;49583;45.590;-122.498;2024-01-15T09:47:54;3.90;;;3.70;;
50631;SDS011;49583;45.590;-122.498;2024-01-15T09:50:08;4.10;;;3.80;;
50631;SDS011;49583;45.590;-122.498;2024-01-15T09:52:23;4.50;;;4.20;;
50631;SDS011;49583;45.590;-122.498;2024-01-15T09:54:36;4.10;;;3.90;;
50631;SDS011;49583;45.590;-122.498;2024-01-15T09:56:53;4.50;;;4.20;;
50631;SDS011;49583;45.590;-122.498;2024-01-15T09:59:06;4.20;;;4.00;;
50631;SDS011;49583;45.590;-122.498;2024-01-15T10:01:19;4.50;;;4.10;;
50631;SDS011;49583;45.590;-122.498;2024-01-15T10:03:32;4.50;;;4.10;;
50631;SDS011;49583;45.590;-122.498;2024-01-15T10:05:45;4.60;;;4.30;;
50631;SDS011;49583;45.590;-122.498;2024-01-15T10:07:58;4.00;;;3.80;;
50631;SDS011;49583;45.590;-122.498;2024-01-15T10:10:14;4.80;;;4.50;;
50631;SDS011;49583;45.590;-122.498;2024-01-15T10:12:26;4.40;;;4.10;;
50631;SDS011;49583;45.590;-122.498;2024-01-15T10:14:39;4.10;;;3.80;;
50631;SDS011;49583;45.590;-122.498;2024-01-15T10:16:52;4.30;;;4.00;;
50631;SDS011;49583;45.590;-122.498;2024-01-15T10:19:05;13.30;;;4.70;;
50631;SDS011;49583;45.590;-122.498;2024-01-15T10:21:18;4.10;;;3.80;;
50631;SDS011;49583;45.590;-122.498;2024-01-15T10:23:31;4.60;;;4.20;;
50631;SDS011;49583;45.590;-122.498;2024-01-15T10:25:44;4.20;;;3.80;;
50631;SDS011;49583;45.590;-122.498;2024-01-15T10:28:01;4.20;;;3.90;;
50631;SDS011;49583;45.590;-122.498;2024-01-15T10:30:15;3.70;;;3.50;;
50631;SDS011;49583;45.590;-122.498;2024-01-15T10:32:28;6.10;;;4.60;;
50631;SDS011;49583;45.590;-122.498;2024-01-15T10:34:40;6.00;;;3.90;;
50631;SDS011;49583;45.590;-122.498;2024-01-15T10:36:53;4.00;;;3.70;;
50631;SDS011;49583;45.590;-122.498;2024-01-15T10:39:06;3.80;;;3.60;;
50631;SDS011;49583;45.590;-122.498;2024-01-15T10:41:19;3.40;;;3.20;;
50631;SDS011;49583;45.590;-122.498;2024-01-15T10:43:32;3.60;;;3.30;;
50631;SDS011;49583;45.590;-122.498;2024-01-15T10:45:45;3.40;;;3.20;;
50631;SDS011;49583;45.590;-122.498;2024-01-15T10:48:00;3.30;;;3.10;;
50631;SDS011;49583;45.590;-122.498;2024-01-15T10:50:14;7.60;;;3.40;;
50631;SDS011;49583;45.590;-122.498;2024-01-15T10:52:27;4.40;;;4.00;;
50631;SDS011;49583;45.590;-122.498;2024-01-15T10:54:40;4.10;;;3.80;;
50631;SDS011;49583;45.590;-122.498;2024-01-15T10:56:55;3.20;;;3.00;;
50631;SDS011;49583;45.590;-122.498;2024-01-15T10:59:08;4.50;;;4.20;;
50631;SDS011;49583;45.590;-122.498;2024-01-15T11:01:21;4.00;;;3.60;;
50631;SDS011;49583;45.590;-122.498;2024-01-15T11:03:36;4.30;;;4.10;;
50631;SDS011;49583;45.590;-122.498;2024-01-15T11:05:49;4.50;;;4.10;;
50631;SDS011;49583;45.590;-122.498;2024-01-15T11:08:04;4.00;;;3.10;;
50631;SDS011;49583;45.590;-122.498;2024-01-15T11:12:54;4.80;;;4.40;;
50631;SDS011;49583;45.590;-122.498;2024-01-15T11:15:07;6.90;;;3.80;;
50631;SDS011;49583;45.590;-122.498;2024-01-15T11:17:30;4.10;;;3.90;;
50631;SDS011;49583;45.590;-122.498;2024-01-15T11:20:13;4.00;;;3.80;;
50631;SDS011;49583;45.590;-122.498;2024-01-15T11:25:04;5.10;;;4.70;;
50631;SDS011;49583;45.590;-122.498;2024-01-15T11:27:39;4.50;;;4.30;;
50631;SDS011;49583;45.590;-122.498;2024-01-15T11:29:52;4.20;;;4.00;;
50631;SDS011;49583;45.590;-122.498;2024-01-15T11:32:21;4.30;;;4.00;;
50631;SDS011;49583;45.590;-122.498;2024-01-15T11:37:17;4.90;;;4.60;;
50631;SDS011;49583;45.590;-122.498;2024-01-15T11:39:43;5.10;;;4.30;;
50631;SDS011;49583;45.590;-122.498;2024-01-15T11:41:56;4.30;;;4.10;;
50631;SDS011;49583;45.590;-122.498;2024-01-15T11:44:12;5.00;;;4.70;;
50631;SDS011;49583;45.590;-122.498;2024-01-15T11:49:13;5.10;;;4.80;;
50631;SDS011;49583;45.590;-122.498;2024-01-15T11:51:50;4.40;;;4.10;;
50631;SDS011;49583;45.590;-122.498;2024-01-15T11:54:05;5.70;;;4.60;;
50631;SDS011;49583;45.590;-122.498;2024-01-15T11:56:22;4.60;;;4.30;;
50631;SDS011;49583;45.590;-122.498;2024-01-15T11:58:35;4.90;;;4.50;;
50631;SDS011;49583;45.590;-122.498;2024-01-15T12:00:49;4.50;;;4.20;;
50631;SDS011;49583;45.590;-122.498;2024-01-15T12:03:04;4.30;;;4.10;;
50631;SDS011;49583;45.590;-122.498;2024-01-15T12:05:18;4.20;;;3.80;;
50631;SDS011;49583;45.590;-122.498;2024-01-15T12:07:32;4.20;;;3.60;;
50631;SDS011;49583;45.590;-122.498;2024-01-15T12:09:45;4.00;;;3.00;;
50631;SDS011;49583;45.590;-122.498;2024-01-15T12:12:00;3.70;;;3.20;;
50631;SDS011;49583;45.590;-122.498;2024-01-15T12:14:21;4.00;;;3.70;;
50631;SDS011;49583;45.590;-122.498;2024-01-15T12:16:37;4.90;;;4.50;;
50631;SDS011;49583;45.590;-122.498;2024-01-15T12:18:49;3.80;;;3.50;;
50631;SDS011;49583;45.590;-122.498;2024-01-15T12:21:03;4.90;;;4.60;;
50631;SDS011;49583;45.590;-122.498;2024-01-15T12:23:17;4.80;;;4.40;;
50631;SDS011;49583;45.590;-122.498;2024-01-15T12:25:29;4.60;;;4.20;;
50631;SDS011;49583;45.590;-122.498;2024-01-15T12:27:43;4.00;;;3.60;;
50631;SDS011;49583;45.590;-122.498;2024-01-15T12:29:57;4.50;;;3.90;;
50631;SDS011;49583;45.590;-122.498;2024-01-15T12:32:11;3.90;;;3.70;;
50631;SDS011;49583;45.590;-122.498;2024-01-15T12:34:24;4.60;;;4.30;;
50631;SDS011;49583;45.590;-122.498;2024-01-15T12:36:41;4.20;;;3.90;;
50631;SDS011;49583;45.590;-122.498;2024-01-15T12:38:55;4.90;;;4.30;;
50631;SDS011;49583;45.590;-122.498;2024-01-15T12:41:11;4.70;;;4.40;;
50631;SDS011;49583;45.590;-122.498;2024-01-15T12:43:24;4.00;;;3.80;;
50631;SDS011;49583;45.590;-122.498;2024-01-15T12:45:37;5.00;;;4.70;;
50631;SDS011;49583;45.590;-122.498;2024-01-15T12:47:50;5.60;;;5.20;;
50631;SDS011;49583;45.590;-122.498;2024-01-15T12:50:04;5.00;;;4.50;;
50631;SDS011;49583;45.590;-122.498;2024-01-15T12:52:26;5.10;;;4.70;;
50631;SDS011;49583;45.590;-122.498;2024-01-15T12:54:39;4.70;;;4.10;;
50631;SDS011;49583;45.590;-122.498;2024-01-15T12:56:51;6.70;;;4.10;;
50631;SDS011;49583;45.590;-122.498;2024-01-15T12:59:04;4.60;;;4.30;;
50631;SDS011;49583;45.590;-122.498;2024-01-15T13:01:17;4.60;;;4.20;;
50631;SDS011;49583;45.590;-122.498;2024-01-15T13:03:30;4.70;;;4.40;;